Time;durP1;ratioP1;P1;durP2;ratioP2;P2;SDS_P1;SDS_P2;PMS_P1;PMS_P2;Temp;Humidity;BMP_temperature;BMP_pressure;BME280_temperature;BME280_humidity;BME280_pressure;Samples;Min_cycle;Max_cycle;Signal;HPM_P1;HPM_P2
2022/09/16 00:01:51;;;;;;;4.40;4.00;;;;;;;15.05;95.32;98038.58;109495;1274;22416;-59
2022/09/16 00:04:19;;;;;;;3.80;3.20;;;;;;;15.04;95.37;98036.77;109340;1274;139996;-58
2022/09/16 00:06:46;;;;;;;3.60;3.30;;;;;;;15.01;95.45;98030.50;109454;1274;22464;-58
2022/09/16 00:09:12;;;;;;;3.70;3.40;;;;;;;14.99;95.53;98040.78;109497;1273;22451;-58
2022/09/16 00:11:39;;;;;;;4.50;3.50;;;;;;;14.97;95.66;98044.02;109269;1276;139557;-58
2022/09/16 00:14:06;;;;;;;3.90;3.60;;;;;;;14.98;95.79;98039.55;109517;1274;22539;-59
2022/09/16 00:16:32;;;;;;;3.90;3.40;;;;;;;14.98;95.90;98034.55;109303;1274;139173;-60
2022/09/16 00:19:00;;;;;;;3.50;3.20;;;;;;;14.98;95.85;98028.27;109505;1273;22525;-59
2022/09/16 00:21:27;;;;;;;5.50;3.20;;;;;;;14.96;95.80;98025.29;109422;1274;22534;-58
2022/09/16 00:23:54;;;;;;;4.30;3.70;;;;;;;14.94;95.87;98023.77;109307;1274;137849;-59
2022/09/16 00:26:22;;;;;;;3.60;3.30;;;;;;;14.93;95.87;98018.31;109465;1274;22439;-59
2022/09/16 00:28:49;;;;;;;3.80;3.50;;;;;;;14.92;96.00;98015.70;109343;1274;138581;-59
2022/09/16 00:31:16;;;;;;;5.20;3.70;;;;;;;14.92;96.01;98023.60;109406;1274;22463;-59
2022/09/16 00:33:43;;;;;;;6.00;3.80;;;;;;;14.92;95.95;98024.92;109466;1274;22522;-60
2022/09/16 00:36:12;;;;;;;4.00;3.30;;;;;;;14.90;96.02;98029.21;109349;1274;138673;-60
2022/09/16 00:38:39;;;;;;;4.00;3.60;;;;;;;14.89;96.10;98029.73;109387;1274;22462;-60
2022/09/16 00:41:06;;;;;;;5.60;4.50;;;;;;;14.89;96.08;98036.92;105783;1271;137891;-64
2022/09/16 00:43:54;;;;;;;6.20;3.70;;;;;;;14.87;96.15;98038.27;105126;1274;22579;-63
2022/09/16 00:46:37;;;;;;;4.30;3.80;;;;;;;14.87;96.29;98036.24;104985;1275;138335;-63
2022/09/16 00:49:21;;;;;;;4.50;4.00;;;;;;;14.86;96.36;98042.16;109454;1274;22439;-65
2022/09/16 00:51:49;;;;;;;8.60;5.00;;;;;;;14.84;96.36;98044.59;109202;1274;22464;-63
2022/09/16 00:54:15;;;;;;;5.60;3.90;;;;;;;14.81;96.40;98046.20;109399;1274;22449;-63
2022/09/16 00:56:43;;;;;;;8.00;4.40;;;;;;;14.79;96.45;98043.02;109419;1274;23121;-63
2022/09/16 00:59:13;;;;;;;4.00;3.60;;;;;;;14.78;96.57;98052.50;109175;1275;139086;-64
2022/09/16 01:01:41;;;;;;;4.40;3.80;;;;;;;14.76;96.57;98055.55;109455;1274;23729;-64
2022/09/16 01:04:13;;;;;;;4.10;3.80;;;;;;;14.75;96.70;98054.34;109238;1274;138068;-64
2022/09/16 01:06:40;;;;;;;5.10;4.60;;;;;;;14.74;96.81;98058.91;109421;1274;22483;-64
2022/09/16 01:09:06;;;;;;;5.40;4.70;;;;;;;14.73;96.84;98058.13;109407;1274;22424;-64
2022/09/16 01:11:33;;;;;;;6.30;4.10;;;;;;;14.72;96.92;98064.75;109397;1274;138092;-64
2022/09/16 01:14:51;;;;;;;5.10;4.50;;;;;;;14.70;97.03;98061.31;109443;1274;22543;-64
2022/09/16 01:17:13;;;;;;;5.40;4.80;;;;;;;14.68;97.08;98068.83;109357;1274;138319;-64
2022/09/16 01:19:48;;;;;;;5.50;5.00;;;;;;;14.65;97.09;98066.29;109323;1274;22476;-65
2022/09/16 01:22:52;;;;;;;5.80;5.20;;;;;;;14.62;97.33;98064.98;109258;1274;139114;-64
2022/09/16 01:25:49;;;;;;;7.40;5.10;;;;;;;14.61;97.47;98064.54;109457;1274;22454;-64
2022/09/16 01:28:43;;;;;;;5.80;4.60;;;;;;;14.59;97.65;98068.42;109333;1274;138640;-64
2022/09/16 01:31:15;;;;;;;6.00;5.10;;;;;;;14.57;97.66;98068.76;109347;1274;22406;-64
2022/09/16 01:34:11;;;;;;;7.10;5.70;;;;;;;14.57;97.79;98069.07;109243;1274;22456;-63
2022/09/16 01:37:13;;;;;;;6.10;5.00;;;;;;;14.56;97.85;98066.23;109390;1274;23509;-63
2022/09/16 01:39:52;;;;;;;8.50;5.20;;;;;;;14.57;98.04;98068.90;108020;1280;23055;-73
2022/09/16 01:42:22;;;;;;;7.30;5.50;;;;;;;14.56;98.14;98073.67;104686;1278;22545;-74
2022/09/16 01:45:11;;;;;;;6.50;5.80;;;;;;;14.56;98.15;98077.64;104701;1280;24342;-74
2022/09/16 01:47:50;;;;;;;6.00;5.10;;;;;;;14.53;98.18;98088.30;104433;1281;138261;-73
2022/09/16 01:50:33;;;;;;;6.20;5.20;;;;;;;14.49;98.29;98087.51;104702;1278;25270;-73
2022/09/16 01:53:11;;;;;;;6.00;5.50;;;;;;;14.46;98.38;98080.08;104533;1280;138385;-73
2022/09/16 01:55:42;;;;;;;7.20;5.50;;;;;;;14.44;98.64;98082.00;108996;1278;22489;-73
2022/09/16 01:58:25;;;;;;;6.90;5.80;;;;;;;14.41;98.69;98092.45;108869;1277;139115;-71
2022/09/16 02:00:54;;;;;;;11.10;5.90;;;;;;;14.39;98.77;98093.94;108883;1280;22460;-72
2022/09/16 02:03:27;;;;;;;5.60;5.10;;;;;;;14.36;98.92;98088.96;108895;1277;22478;-72
2022/09/16 02:05:59;;;;;;;7.60;5.90;;;;;;;14.33;99.07;98078.79;108786;1277;138739;-72
2022/09/16 02:08:49;;;;;;;6.70;6.00;;;;;;;14.32;99.24;98073.78;109003;1280;22422;-72
2022/09/16 02:11:17;;;;;;;5.60;5.10;;;;;;;14.31;99.33;98075.23;108840;1277;138714;-73
2022/09/16 02:13:53;;;;;;;6.70;5.80;;;;;;;14.31;99.50;98074.84;108917;1277;22774;-74
2022/09/16 02:16:27;;;;;;;8.20;6.20;;;;;;;14.33;99.62;98078.52;109022;1277;139546;-73
2022/09/16 02:18:56;;;;;;;13.50;5.50;;;;;;;14.34;99.66;98080.38;109353;1274;22508;-73
2022/09/16 02:21:24;;;;;;;7.10;5.50;;;;;;;14.34;99.63;98084.46;109499;1274;22455;-73
2022/09/16 02:23:53;;;;;;;9.40;6.00;;;;;;;14.35;99.68;98076.73;109232;1274;138166;-73
2022/09/16 02:26:26;;;;;;;7.30;5.30;;;;;;;14.34;99.58;98079.70;109364;1274;22543;-73
2022/09/16 02:28:52;;;;;;;6.40;5.80;;;;;;;14.33;99.45;98080.56;109167;1274;138067;-73
2022/09/16 02:31:22;;;;;;;6.10;5.60;;;;;;;14.32;99.22;98081.08;109429;1274;22285;-73
2022/09/16 02:33:56;;;;;;;7.50;5.90;;;;;;;14.31;99.07;98081.00;109290;1274;138227;-70
2022/09/16 02:36:23;;;;;;;6.50;5.80;;;;;;;14.29;99.00;98081.86;109395;1274;22993;-72
2022/09/16 02:38:54;;;;;;;6.70;6.10;;;;;;;14.30;98.94;98082.61;109029;1277;22465;-72
2022/09/16 02:41:21;;;;;;;7.60;5.80;;;;;;;14.30;98.78;98089.99;109174;1274;139708;-63
2022/09/16 02:43:48;;;;;;;7.60;5.60;;;;;;;14.30;98.73;98087.22;109304;1274;22487;-64
2022/09/16 02:46:30;;;;;;;6.60;5.70;;;;;;;14.30;98.58;98087.31;109372;1274;139335;-64
2022/09/16 02:49:00;;;;;;;6.30;5.60;;;;;;;14.30;98.50;98090.50;109330;1274;23167;-64
2022/09/16 02:51:38;;;;;;;11.40;6.30;;;;;;;14.30;98.40;98088.34;109499;1274;22486;-64
2022/09/16 02:54:17;;;;;;;5.90;5.30;;;;;;;14.30;98.33;98087.09;109286;1274;139025;-64
2022/09/16 02:56:44;;;;;;;6.30;5.70;;;;;;;14.31;98.27;98080.23;109469;1274;22456;-64
2022/09/16 02:59:11;;;;;;;7.20;6.10;;;;;;;14.31;98.07;98084.39;109295;1274;138311;-64
2022/09/16 03:01:41;;;;;;;6.10;5.50;;;;;;;14.32;98.02;98087.39;109515;1274;22472;-64
2022/09/16 03:04:13;;;;;;;7.20;6.20;;;;;;;14.31;97.82;98081.94;109248;1274;138729;-64
2022/09/16 03:06:40;;;;;;;7.70;6.30;;;;;;;14.29;97.60;98077.39;109362;1274;22499;-64
2022/09/16 03:09:12;;;;;;;6.40;5.40;;;;;;;14.28;97.45;98081.74;109390;1274;22879;-64
2022/09/16 03:11:48;;;;;;;8.50;5.60;;;;;;;14.26;97.40;98088.77;109254;1274;139161;-64
2022/09/16 03:14:14;;;;;;;8.70;5.60;;;;;;;14.25;97.29;98091.92;109505;1274;22472;-63
2022/09/16 03:16:49;;;;;;;10.00;5.50;;;;;;;14.22;97.10;98095.99;109393;1274;138164;-63
2022/09/16 03:19:35;;;;;;;6.20;5.60;;;;;;;14.19;96.98;98098.05;109415;1274;23220;-63
2022/09/16 03:22:07;;;;;;;6.00;5.40;;;;;;;14.17;97.03;98098.64;109399;1274;139457;-63
2022/09/16 03:24:40;;;;;;;6.60;5.70;;;;;;;14.16;97.13;98100.48;109439;1274;22615;-63
2022/09/16 03:27:09;;;;;;;7.50;5.50;;;;;;;14.16;97.13;98102.12;109536;1273;22299;-63
2022/09/16 03:29:53;;;;;;;6.10;5.50;;;;;;;14.15;97.22;98099.12;109396;1273;139536;-63
2022/09/16 03:32:23;;;;;;;6.20;5.00;;;;;;;14.15;97.21;98100.76;109384;1274;23126;-63
2022/09/16 03:34:59;;;;;;;8.20;5.40;;;;;;;14.15;97.23;98097.05;109291;1274;139053;-63
2022/09/16 03:37:27;;;;;;;6.10;5.20;;;;;;;14.14;97.29;98090.55;109346;1274;23158;-63
2022/09/16 03:39:55;;;;;;;6.40;5.70;;;;;;;14.14;97.31;98083.71;109277;1274;138975;-63
2022/09/16 03:42:22;;;;;;;7.60;5.10;;;;;;;14.13;97.30;98080.57;109336;1274;22399;-63
2022/09/16 03:44:49;;;;;;;6.90;5.60;;;;;;;14.12;97.41;98078.46;109486;1274;22588;-64
2022/09/16 03:47:16;;;;;;;5.80;5.10;;;;;;;14.13;97.39;98085.48;109365;1274;138558;-64
2022/09/16 03:49:42;;;;;;;6.00;5.10;;;;;;;14.12;97.48;98088.71;109327;1274;22947;-64
2022/09/16 03:52:09;;;;;;;6.00;4.80;;;;;;;14.11;97.51;98091.36;109405;1274;138831;-64
2022/09/16 03:54:37;;;;;;;6.60;5.40;;;;;;;14.12;97.58;98098.73;109466;1274;22544;-64
2022/09/16 03:57:04;;;;;;;6.80;5.60;;;;;;;14.12;97.63;98096.32;109357;1274;23286;-64
2022/09/16 03:59:31;;;;;;;6.60;5.70;;;;;;;14.12;97.66;98098.91;109331;1274;140560;-64
2022/09/16 04:01:58;;;;;;;6.90;5.40;;;;;;;14.12;97.57;98103.45;109430;1274;23695;-64
2022/09/16 04:04:25;;;;;;;5.80;5.20;;;;;;;14.11;97.56;98104.85;109304;1274;138354;-64
2022/09/16 04:06:51;;;;;;;7.80;5.60;;;;;;;14.09;97.52;98098.75;109489;1274;22454;-64
2022/09/16 04:09:18;;;;;;;5.30;4.80;;;;;;;14.08;97.59;98091.98;109493;1274;23251;-64
2022/09/16 04:11:45;;;;;;;6.30;4.90;;;;;;;14.08;97.68;98096.10;109323;1274;138498;-64
2022/09/16 04:14:12;;;;;;;7.70;5.10;;;;;;;14.07;97.59;98110.91;109466;1274;22546;-63
2022/09/16 04:16:38;;;;;;;8.10;5.90;;;;;;;14.06;97.67;98119.77;109329;1274;138899;-65
2022/09/16 04:19:12;;;;;;;8.80;6.30;;;;;;;14.04;97.59;98123.91;109423;1274;22643;-65
2022/09/16 04:21:39;;;;;;;9.50;6.90;;;;;;;14.02;97.71;98126.09;109528;1274;22472;-65
2022/09/16 04:24:06;;;;;;;9.80;7.30;;;;;;;14.01;97.65;98128.83;109308;1274;139161;-65
2022/09/16 04:26:38;;;;;;;11.10;6.90;;;;;;;13.99;97.78;98119.90;109426;1274;23363;-66
2022/09/16 04:29:05;;;;;;;9.20;6.70;;;;;;;13.97;97.81;98111.14;109150;1275;138964;-65
2022/09/16 04:31:32;;;;;;;8.30;5.80;;;;;;;13.97;97.87;98122.44;109497;1274;22454;-65
2022/09/16 04:34:00;;;;;;;7.00;5.40;;;;;;;13.95;97.95;98125.98;109347;1274;138704;-65
2022/09/16 04:36:27;;;;;;;8.00;5.90;;;;;;;13.93;97.86;98134.56;109455;1274;23328;-65
2022/09/16 04:38:53;;;;;;;6.40;5.10;;;;;;;13.92;98.00;98139.58;109562;1273;22264;-64
2022/09/16 04:41:22;;;;;;;6.20;5.60;;;;;;;13.92;97.96;98141.61;109315;1274;138220;-64
2022/09/16 04:43:54;;;;;;;6.60;5.50;;;;;;;13.92;98.03;98136.35;109516;1274;22588;-64
2022/09/16 04:46:22;;;;;;;6.80;5.80;;;;;;;13.93;98.04;98137.27;109332;1274;139091;-64
2022/09/16 04:48:49;;;;;;;6.90;4.70;;;;;;;13.92;97.99;98131.74;109419;1274;22492;-64
2022/09/16 04:51:16;;;;;;;6.00;5.40;;;;;;;13.91;98.02;98134.25;109491;1273;23165;-64
2022/09/16 04:53:43;;;;;;;6.50;5.60;;;;;;;13.91;97.96;98146.23;109375;1272;140200;-64
2022/09/16 04:56:14;;;;;;;6.60;5.90;;;;;;;13.90;98.15;98146.26;109434;1274;22489;-64
2022/09/16 04:58:42;;;;;;;7.20;5.30;;;;;;;13.91;97.96;98148.81;109325;1274;139371;-64
2022/09/16 05:01:14;;;;;;;8.80;6.00;;;;;;;13.90;98.17;98162.55;109461;1274;23215;-64
2022/09/16 05:03:45;;;;;;;6.40;5.80;;;;;;;13.90;98.12;98170.13;109457;1274;22411;-64
2022/09/16 05:06:14;;;;;;;10.60;6.30;;;;;;;13.93;98.23;98171.98;109366;1274;137695;-64
2022/09/16 05:08:46;;;;;;;6.80;5.90;;;;;;;13.94;98.36;98168.16;109396;1274;24754;-64
2022/09/16 05:11:17;;;;;;;8.80;5.70;;;;;;;13.96;98.40;98167.54;109363;1274;139217;-64
2022/09/16 05:13:44;;;;;;;6.90;5.50;;;;;;;13.98;98.48;98163.04;109369;1272;22431;-64
2022/09/16 05:16:12;;;;;;;7.80;6.60;;;;;;;13.99;98.45;98158.02;109389;1274;138996;-63
2022/09/16 05:18:40;;;;;;;9.60;6.40;;;;;;;14.01;98.51;98159.88;109415;1274;23175;-64
2022/09/16 05:21:09;;;;;;;6.20;5.50;;;;;;;14.02;98.43;98159.63;109477;1274;22555;-63
2022/09/16 05:23:36;;;;;;;6.70;5.70;;;;;;;14.03;98.36;98160.64;109378;1274;137979;-64
2022/09/16 05:26:04;;;;;;;6.90;6.10;;;;;;;14.04;98.40;98168.93;109461;1274;22559;-64
2022/09/16 05:28:31;;;;;;;7.00;5.50;;;;;;;14.06;98.48;98170.27;109414;1274;140243;-64
2022/09/16 05:31:19;;;;;;;7.10;5.90;;;;;;;14.08;98.51;98171.37;109487;1274;22436;-63
2022/09/16 05:33:53;;;;;;;7.70;5.50;;;;;;;14.10;98.36;98176.52;109465;1274;22617;-64
2022/09/16 05:36:19;;;;;;;7.10;5.50;;;;;;;14.09;98.33;98177.38;109496;1274;22272;-64
2022/09/16 05:38:47;;;;;;;6.90;6.20;;;;;;;14.09;98.32;98178.66;109468;1274;23473;-64
2022/09/16 05:41:34;;;;;;;6.90;5.80;;;;;;;14.11;98.36;98177.27;109335;1274;140035;-64
2022/09/16 05:44:00;;;;;;;6.50;5.50;;;;;;;14.12;98.29;98181.52;109430;1274;22496;-64
2022/09/16 05:46:27;;;;;;;7.60;5.70;;;;;;;14.12;98.21;98181.39;109335;1274;138950;-63
2022/09/16 05:48:55;;;;;;;7.00;5.90;;;;;;;14.14;98.34;98179.26;109413;1273;22485;-63
2022/09/16 05:51:22;;;;;;;9.60;6.10;;;;;;;14.15;98.36;98176.59;109446;1274;22555;-62
2022/09/16 05:53:49;;;;;;;8.20;6.40;;;;;;;14.17;98.31;98170.80;109221;1274;138520;-63
2022/09/16 05:56:20;;;;;;;12.20;6.50;;;;;;;14.19;98.42;98180.67;109409;1274;22438;-63
2022/09/16 05:58:47;;;;;;;8.00;5.90;;;;;;;14.22;98.48;98180.54;109197;1274;141169;-63
2022/09/16 06:01:16;;;;;;;8.40;5.90;;;;;;;14.25;98.63;98180.52;109345;1274;22478;-62
2022/09/16 06:03:43;;;;;;;7.90;6.50;;;;;;;14.28;98.76;98184.98;109483;1274;22432;-62
2022/09/16 06:06:12;;;;;;;6.80;6.00;;;;;;;14.32;98.75;98190.17;109293;1274;138052;-62
2022/09/16 06:08:39;;;;;;;7.40;6.20;;;;;;;14.34;98.71;98184.81;109267;1274;23158;-63
2022/09/16 06:11:07;;;;;;;11.30;6.90;;;;;;;14.36;98.73;98180.05;109373;1274;139781;-63
2022/09/16 06:13:34;;;;;;;7.80;6.40;;;;;;;14.37;98.65;98179.36;109437;1274;22530;-63
2022/09/16 06:16:01;;;;;;;7.50;6.40;;;;;;;14.40;98.60;98177.50;109281;1274;139451;-63
2022/09/16 06:18:29;;;;;;;13.20;7.20;;;;;;;14.43;98.65;98176.30;109463;1274;22438;-63
2022/09/16 06:20:56;;;;;;;8.40;6.40;;;;;;;14.47;98.72;98182.77;109417;1274;22272;-63
2022/09/16 06:23:23;;;;;;;7.60;6.70;;;;;;;14.52;98.75;98189.66;109247;1274;139671;-63
2022/09/16 06:26:20;;;;;;;11.50;7.20;;;;;;;14.59;98.99;98192.17;109475;1274;22426;-63
2022/09/16 06:28:47;;;;;;;12.00;6.90;;;;;;;14.67;99.17;98189.64;108835;1277;138401;-63
2022/09/16 06:31:18;;;;;;;10.60;6.70;;;;;;;14.73;99.13;98186.88;108993;1277;22433;-63
2022/09/16 06:33:45;;;;;;;8.90;7.10;;;;;;;14.78;99.16;98191.89;108976;1277;22492;-63
2022/09/16 06:36:13;;;;;;;8.40;7.30;;;;;;;14.83;98.98;98193.55;108875;1277;139181;-63
2022/09/16 06:38:40;;;;;;;8.50;7.70;;;;;;;14.88;98.81;98195.65;108979;1277;22456;-63
2022/09/16 06:41:08;;;;;;;9.40;6.90;;;;;;;14.93;98.78;98191.35;108858;1277;139292;-63
2022/09/16 06:43:35;;;;;;;8.60;7.70;;;;;;;14.98;98.73;98194.50;108882;1280;22475;-63
2022/09/16 06:46:04;;;;;;;8.50;7.50;;;;;;;15.05;98.81;98196.38;108840;1277;140221;-63
2022/09/16 06:48:32;;;;;;;8.80;7.30;;;;;;;15.13;99.00;98198.44;108986;1277;23269;-63
2022/09/16 06:51:03;;;;;;;8.70;7.70;;;;;;;15.20;98.75;98199.09;108992;1277;22479;-63
2022/09/16 06:53:30;;;;;;;9.20;8.20;;;;;;;15.27;98.46;98200.63;108945;1277;139976;-63
2022/09/16 06:56:17;;;;;;;9.00;7.70;;;;;;;15.31;98.02;98203.17;108819;1279;22475;-62
2022/09/16 06:58:47;;;;;;;9.00;7.40;;;;;;;15.33;97.53;98208.05;108930;1277;139371;-63
2022/09/16 07:01:18;;;;;;;8.40;7.50;;;;;;;15.33;97.15;98215.18;108944;1277;23378;-64
2022/09/16 07:03:47;;;;;;;10.20;8.20;;;;;;;15.34;96.89;98217.29;109081;1277;22553;-63
2022/09/16 07:06:15;;;;;;;8.90;7.50;;;;;;;15.35;96.62;98220.48;109325;1274;22448;-63
2022/09/16 07:08:41;;;;;;;11.40;8.10;;;;;;;15.36;96.40;98221.91;109366;1273;22435;-64
2022/09/16 07:11:19;;;;;;;8.40;7.60;;;;;;;15.38;96.26;98226.79;109302;1274;138513;-62
2022/09/16 07:13:47;;;;;;;10.20;7.50;;;;;;;15.37;95.59;98226.70;109431;1274;22531;-63
2022/09/16 07:16:16;;;;;;;11.20;8.40;;;;;;;15.36;95.42;98227.89;109386;1273;140255;-63
2022/09/16 07:18:42;;;;;;;9.90;8.40;;;;;;;15.37;95.28;98233.17;109403;1274;22621;-63
2022/09/16 07:21:17;;;;;;;9.10;6.90;;;;;;;15.39;95.24;98239.42;109532;1274;22464;-63
2022/09/16 07:23:44;;;;;;;8.50;7.00;;;;;;;15.42;95.07;98240.34;109309;1273;138119;-63
2022/09/16 07:26:11;;;;;;;9.50;7.10;;;;;;;15.46;95.01;98239.86;109445;1274;22456;-63
2022/09/16 07:28:38;;;;;;;7.80;6.90;;;;;;;15.52;94.99;98238.92;109406;1274;139020;-62
2022/09/16 07:31:08;;;;;;;8.70;6.90;;;;;;;15.59;95.12;98236.59;109448;1274;23554;-62
2022/09/16 07:33:40;;;;;;;8.30;7.20;;;;;;;15.67;95.09;98234.76;109501;1274;22444;-63
2022/09/16 07:36:07;;;;;;;10.80;7.20;;;;;;;15.75;94.96;98234.59;109291;1274;138604;-63
2022/09/16 07:38:34;;;;;;;11.30;7.00;;;;;;;15.83;94.53;98229.46;109425;1274;23566;-63
2022/09/16 07:41:14;;;;;;;8.10;6.10;;;;;;;15.91;94.21;98227.21;109375;1274;139536;-63
2022/09/16 07:43:41;;;;;;;11.80;6.30;;;;;;;16.01;94.26;98228.05;109489;1274;22459;-63
2022/09/16 07:46:09;;;;;;;13.20;6.40;;;;;;;16.11;94.16;98229.30;109226;1274;141034;-63
2022/09/16 07:48:36;;;;;;;8.00;6.30;;;;;;;16.22;93.89;98233.33;109494;1272;23199;-63
2022/09/16 07:51:08;;;;;;;9.80;6.40;;;;;;;16.32;93.46;98236.48;109486;1274;22453;-62
2022/09/16 07:53:35;;;;;;;9.10;5.40;;;;;;;16.41;92.96;98238.61;109268;1274;138167;-63
2022/09/16 07:56:07;;;;;;;6.50;4.70;;;;;;;16.49;92.11;98241.14;109487;1274;22470;-63
2022/09/16 07:58:33;;;;;;;7.30;4.00;;;;;;;16.54;90.75;98243.29;109300;1273;140387;-65
2022/09/16 08:01:01;;;;;;;7.80;4.80;;;;;;;16.58;89.55;98246.48;109383;1274;22565;-63
2022/09/16 08:03:34;;;;;;;4.40;4.00;;;;;;;16.60;88.29;98243.35;109472;1274;22447;-62
2022/09/16 08:06:03;;;;;;;6.10;3.90;;;;;;;16.63;87.64;98242.12;109211;1277;139866;-63
2022/09/16 08:08:30;;;;;;;7.70;3.60;;;;;;;16.65;87.37;98239.52;109524;1274;22493;-63
2022/09/16 08:10:57;;;;;;;6.10;4.00;;;;;;;16.69;86.93;98236.53;109336;1274;139005;-63
2022/09/16 08:13:25;;;;;;;4.60;3.80;;;;;;;16.74;86.80;98231.39;109562;1272;22585;-62
2022/09/16 08:15:52;;;;;;;5.30;4.30;;;;;;;16.81;86.57;98230.02;109383;1274;140398;-63
2022/09/16 08:18:19;;;;;;;4.60;4.10;;;;;;;16.88;86.29;98224.43;109534;1273;23782;-63
2022/09/16 08:20:46;;;;;;;9.60;4.30;;;;;;;16.96;86.16;98228.13;109493;1273;22452;-63
2022/09/16 08:23:13;;;;;;;7.30;3.90;;;;;;;17.03;85.82;98229.13;109359;1273;138613;-63
2022/09/16 08:25:41;;;;;;;5.90;3.80;;;;;;;17.11;85.19;98227.08;109436;1274;22557;-64
2022/09/16 08:28:12;;;;;;;7.90;3.70;;;;;;;17.19;84.32;98224.89;109422;1272;138176;-63
2022/09/16 08:30:39;;;;;;;6.90;4.10;;;;;;;17.25;82.88;98222.68;109486;1273;22446;-63
2022/09/16 08:33:05;;;;;;;7.50;4.10;;;;;;;17.28;81.80;98226.10;109544;1273;22551;-63
2022/09/16 08:35:32;;;;;;;6.70;4.10;;;;;;;17.30;80.89;98232.27;109384;1273;139881;-63
2022/09/16 08:37:59;;;;;;;5.70;3.50;;;;;;;17.34;80.21;98230.19;109483;1273;22458;-63
2022/09/16 08:40:26;;;;;;;5.60;3.50;;;;;;;17.38;79.72;98228.30;109334;1273;138336;-63
2022/09/16 08:43:03;;;;;;;5.40;3.60;;;;;;;17.42;79.27;98229.73;109303;1274;22459;-63
2022/09/16 08:45:51;;;;;;;6.80;3.60;;;;;;;17.50;78.21;98228.59;109506;1273;22485;-63
2022/09/16 08:48:42;;;;;;;6.90;4.10;;;;;;;17.57;77.13;98229.44;109397;1274;22425;-63
2022/09/16 08:51:14;;;;;;;5.00;3.60;;;;;;;17.60;76.94;98227.91;109428;1273;22417;-63
2022/09/16 08:53:42;;;;;;;9.50;3.80;;;;;;;17.64;76.84;98233.80;109070;1274;140455;-63
2022/09/16 08:56:11;;;;;;;5.00;3.70;;;;;;;17.67;76.02;98234.56;109411;1273;22254;-63
2022/09/16 08:58:44;;;;;;;4.80;3.30;;;;;;;17.70;75.19;98235.08;109298;1274;139099;-64
2022/09/16 09:01:41;;;;;;;6.60;3.70;;;;;;;17.71;75.28;98229.85;109103;1274;23201;-63
2022/09/16 09:04:10;;;;;;;6.40;3.40;;;;;;;17.74;75.28;98227.10;108794;1280;138450;-64
2022/09/16 09:07:14;;;;;;;6.80;3.40;;;;;;;17.75;75.27;98223.60;108872;1280;23314;-64
2022/09/16 09:09:49;;;;;;;7.80;4.20;;;;;;;17.79;74.89;98219.27;108977;1279;22453;-63
2022/09/16 09:12:46;;;;;;;4.30;3.70;;;;;;;17.83;75.04;98226.89;108721;1280;22512;-63
2022/09/16 09:15:38;;;;;;;6.10;3.50;;;;;;;17.90;75.56;98224.10;108499;1282;23233;-63
2022/09/16 09:18:14;;;;;;;6.20;3.60;;;;;;;17.97;75.55;98223.74;108145;1284;138033;-63
2022/09/16 09:21:05;;;;;;;5.70;3.60;;;;;;;18.03;74.03;98223.92;108376;1283;22542;-64
2022/09/16 09:23:42;;;;;;;7.10;3.10;;;;;;;18.06;73.74;98227.80;107694;1289;139542;-63
2022/09/16 09:26:36;;;;;;;6.20;3.10;;;;;;;18.11;73.36;98226.41;107912;1289;22490;-63
2022/09/16 09:29:04;;;;;;;6.50;3.20;;;;;;;18.19;73.31;98232.63;106635;1289;1846527;-63
2022/09/16 09:34:03;;;;;;;6.40;3.20;;;;;;;18.34;72.87;98225.86;101961;1309;545832;-62
2022/09/16 09:37:18;;;;;;;6.60;2.90;;;;;;;18.44;71.62;98225.39;106987;1293;137148;-63
2022/09/16 09:40:13;;;;;;;4.20;3.50;;;;;;;18.52;70.77;98224.40;106067;1295;23162;-62
2022/09/16 09:43:04;;;;;;;6.00;3.30;;;;;;;18.57;70.93;98222.89;102943;1296;137517;-62
2022/09/16 09:45:32;;;;;;;6.10;3.90;;;;;;;18.64;70.26;98227.75;107151;1295;22478;-62
2022/09/16 09:48:02;;;;;;;5.20;3.70;;;;;;;18.70;69.47;98230.19;106079;1292;1683735;-62
2022/09/16 09:50:35;;;;;;;3.50;3.00;;;;;;;18.78;68.83;98232.71;107314;1294;22486;-62
2022/09/16 09:53:11;;;;;;;6.40;4.00;;;;;;;18.85;68.33;98233.05;107507;1293;22577;-62
2022/09/16 09:55:39;;;;;;;5.30;3.20;;;;;;;18.93;68.55;98231.52;107219;1293;138085;-63
2022/09/16 09:58:33;;;;;;;5.90;3.30;;;;;;;19.02;68.04;98232.58;107310;1293;23270;-62
2022/09/16 10:01:00;;;;;;;4.50;3.20;;;;;;;19.09;66.95;98239.11;107368;1293;138786;-62
2022/09/16 10:03:28;;;;;;;4.10;2.80;;;;;;;19.12;65.39;98239.63;107540;1293;22486;-63
2022/09/16 10:05:55;;;;;;;4.20;3.00;;;;;;;19.10;64.91;98241.36;107295;1293;137451;-63
2022/09/16 10:08:40;;;;;;;4.00;2.90;;;;;;;19.05;64.88;98237.48;107403;1293;22547;-63
2022/09/16 10:11:21;;;;;;;3.90;3.20;;;;;;;19.03;64.94;98244.70;107172;1294;23746;-63
2022/09/16 10:13:56;;;;;;;4.10;3.10;;;;;;;19.02;65.24;98241.84;107715;1287;22555;-61
2022/09/16 10:16:36;;;;;;;7.60;3.40;;;;;;;19.01;64.93;98240.84;108263;1284;22474;-64
2022/09/16 10:19:04;;;;;;;5.00;3.30;;;;;;;18.97;64.29;98244.43;108450;1283;138391;-64
2022/09/16 10:21:40;;;;;;;5.60;3.40;;;;;;;18.94;64.18;98246.74;108597;1283;23710;-64
2022/09/16 10:24:27;;;;;;;7.90;3.00;;;;;;;18.90;63.70;98252.08;108513;1284;137592;-64
2022/09/16 10:26:55;;;;;;;8.90;3.00;;;;;;;18.89;63.58;98255.13;108438;1284;23226;-64
2022/09/16 10:29:21;;;;;;;5.90;3.00;;;;;;;18.91;63.62;98257.59;108217;1284;137500;-64
2022/09/16 10:31:48;;;;;;;27.70;22.60;;;;;;;18.92;63.47;98256.60;108400;1284;22534;-64
2022/09/16 10:34:23;;;;;;;7.80;6.20;;;;;;;18.94;64.18;98252.20;108576;1283;23171;-63
2022/09/16 10:37:04;;;;;;;7.30;4.10;;;;;;;19.00;64.07;98249.24;108587;1281;137658;-64
2022/09/16 10:39:32;;;;;;;7.70;3.50;;;;;;;19.07;63.92;98249.30;108420;1284;22661;-64
2022/09/16 10:41:59;;;;;;;4.20;3.50;;;;;;;19.12;63.61;98254.27;108345;1281;137224;-62
2022/09/16 10:44:30;;;;;;;5.60;3.70;;;;;;;19.13;63.43;98253.98;108697;1283;22576;-63
2022/09/16 10:46:58;;;;;;;7.10;4.70;;;;;;;19.10;62.90;98253.88;108545;1282;22591;-62
2022/09/16 10:49:33;;;;;;;5.50;3.50;;;;;;;19.05;62.92;98257.54;108507;1283;137880;-64
2022/09/16 10:52:15;;;;;;;9.00;3.60;;;;;;;19.02;63.30;98249.02;108463;1284;22542;-62
2022/09/16 10:54:42;;;;;;;4.70;3.40;;;;;;;19.04;63.37;98249.60;108582;1284;137135;-63
2022/09/16 10:57:19;;;;;;;3.80;3.30;;;;;;;19.09;62.53;98249.63;108677;1283;22475;-63
2022/09/16 11:00:13;;;;;;;7.20;3.30;;;;;;;19.13;62.16;98251.09;108550;1283;137499;-63
2022/09/16 11:02:55;;;;;;;3.90;3.10;;;;;;;19.08;62.62;98245.23;108511;1283;22531;-64
2022/09/16 11:05:22;;;;;;;7.10;3.20;;;;;;;19.04;62.15;98243.22;108615;1283;137585;-66
2022/09/16 11:07:55;;;;;;;12.40;9.80;;;;;;;19.00;61.62;98243.72;108637;1282;22457;-63
2022/09/16 11:10:38;;;;;;;4.40;3.30;;;;;;;18.99;62.28;98245.74;108665;1283;22556;-63
2022/09/16 11:13:26;;;;;;;6.80;3.60;;;;;;;19.00;62.02;98249.17;108525;1283;137886;-63
2022/09/16 11:16:14;;;;;;;7.30;3.50;;;;;;;18.99;61.60;98255.45;108367;1284;22610;-61
2022/09/16 11:19:04;;;;;;;7.30;2.80;;;;;;;18.95;61.89;98257.13;108138;1283;137487;-63
2022/09/16 11:21:46;;;;;;;6.10;3.90;;;;;;;18.91;61.96;98257.98;104634;1283;23166;-62
2022/09/16 11:24:47;;;;;;;5.20;3.40;;;;;;;18.87;61.96;98254.27;104508;1278;138025;-63
2022/09/16 11:27:30;;;;;;;10.50;3.80;;;;;;;18.85;62.13;98259.07;104354;1281;25530;-63
2022/09/16 11:30:10;;;;;;;10.20;3.90;;;;;;;18.82;61.74;98259.29;104751;1277;137310;-66
2022/09/16 11:33:08;;;;;;;9.10;4.30;;;;;;;18.81;62.70;98259.48;104672;1278;22612;-67
2022/09/16 11:35:40;;;;;;;4.50;3.40;;;;;;;18.81;62.58;98264.14;104616;1280;137365;-68
2022/09/16 11:38:26;;;;;;;4.60;3.10;;;;;;;18.81;61.94;98261.61;108893;1279;22542;-66
2022/09/16 11:41:19;;;;;;;5.20;3.30;;;;;;;18.80;61.95;98253.92;109104;1278;22555;-66
2022/09/16 11:43:52;;;;;;;5.70;3.60;;;;;;;18.77;61.54;98256.10;108687;1277;22509;-66
2022/09/16 11:46:26;;;;;;;9.10;3.40;;;;;;;18.77;62.04;98257.82;108472;1278;22596;-68
2022/09/16 11:49:16;;;;;;;5.50;3.40;;;;;;;18.76;61.21;98254.48;108919;1278;137773;-67
2022/09/16 11:52:21;;;;;;;5.80;3.20;;;;;;;18.79;61.46;98259.72;108978;1277;22671;-64